createdAt,value
2023-05-13T00:00:57.732Z,10.75
2023-05-13T00:05:59.816Z,10.65
2023-05-13T00:11:01.836Z,10.54
2023-05-13T00:16:03.877Z,10.44
2023-05-13T00:21:06.191Z,10.38
2023-05-13T00:26:08.121Z,10.30
2023-05-13T00:31:10.407Z,10.25
2023-05-13T00:36:12.446Z,10.22
2023-05-13T00:41:14.428Z,10.20
2023-05-13T00:46:16.541Z,10.17
2023-05-13T00:51:18.738Z,10.13
2023-05-13T00:56:21.975Z,10.11
2023-05-13T01:01:51.497Z,10.15
2023-05-13T01:07:28.822Z,10.23
2023-05-13T01:12:36.850Z,10.36
2023-05-13T01:17:50.554Z,10.44
2023-05-13T01:22:52.581Z,10.49
2023-05-13T01:27:54.708Z,10.48
2023-05-13T01:32:56.924Z,10.46
2023-05-13T01:38:00.596Z,10.46
2023-05-13T01:43:02.457Z,10.45
2023-05-13T01:48:04.983Z,10.43
2023-05-13T01:53:16.880Z,10.43
2023-05-13T01:58:21.156Z,10.42
2023-05-13T02:03:23.170Z,10.39
2023-05-13T02:08:25.425Z,10.40
2023-05-13T02:13:27.273Z,10.45
2023-05-13T02:18:29.089Z,10.55
2023-05-13T02:23:30.811Z,10.63
2023-05-13T02:28:32.488Z,10.67
2023-05-13T02:33:34.281Z,10.64
2023-05-13T02:38:36.121Z,10.61
2023-05-13T02:43:38.240Z,10.59
2023-05-13T02:48:40.465Z,10.56
2023-05-13T02:53:42.228Z,10.57
2023-05-13T02:58:45.031Z,10.62
2023-05-13T03:03:47.284Z,10.67
2023-05-13T03:08:49.027Z,10.69
2023-05-13T03:13:50.764Z,10.72
2023-05-13T03:18:52.525Z,10.72
2023-05-13T03:23:54.744Z,10.68
2023-05-13T03:28:56.475Z,10.70
2023-05-13T03:33:58.639Z,10.69
2023-05-13T03:39:00.654Z,10.73
2023-05-13T03:44:02.971Z,10.80
2023-05-13T03:49:04.821Z,10.92
2023-05-13T03:54:06.647Z,11.04
2023-05-13T03:59:08.384Z,11.11
2023-05-13T04:04:11.044Z,11.14
2023-05-13T04:09:12.727Z,11.18
2023-05-13T04:14:14.478Z,11.22
2023-05-13T04:19:18.411Z,11.29
2023-05-13T04:24:20.111Z,11.37
2023-05-13T04:29:24.013Z,11.42
2023-05-13T04:34:26.006Z,11.45
2023-05-13T04:39:27.803Z,11.47
2023-05-13T04:44:30.003Z,11.52
2023-05-13T04:49:32.043Z,11.61
2023-05-13T04:54:36.007Z,11.67
2023-05-13T04:59:37.928Z,11.71
2023-05-13T05:04:41.617Z,11.72
2023-05-13T05:09:48.113Z,11.75
2023-05-13T05:14:49.913Z,11.83
2023-05-13T05:19:51.768Z,11.94
2023-05-13T05:24:53.693Z,12.08
2023-05-13T05:29:55.467Z,12.22
2023-05-13T05:34:57.617Z,12.31
2023-05-13T05:39:59.435Z,12.42
2023-05-13T05:45:01.885Z,12.54
2023-05-13T05:50:04.411Z,12.69
2023-05-13T05:55:07.190Z,13.00
2023-05-13T06:00:09.436Z,13.31
2023-05-13T06:05:17.020Z,13.61
2023-05-13T06:10:20.029Z,14.31
2023-05-13T06:15:23.108Z,15.13
2023-05-13T06:20:24.894Z,15.82
2023-05-13T06:25:26.666Z,16.08
2023-05-13T06:30:28.418Z,16.20
2023-05-13T06:35:30.462Z,16.34
2023-05-13T06:40:33.320Z,16.63
2023-05-13T06:45:35.446Z,17.22
2023-05-13T06:50:37.323Z,18.73
2023-05-13T06:55:41.828Z,21.16
2023-05-13T07:00:44.228Z,23.45
2023-05-13T07:05:46.216Z,25.09
2023-05-13T07:10:47.897Z,26.47
2023-05-13T07:15:49.990Z,27.80
2023-05-13T07:20:52.478Z,29.05
2023-05-13T07:25:54.216Z,29.80
2023-05-13T07:30:56.070Z,30.11
2023-05-13T07:35:57.913Z,30.37
2023-05-13T07:40:59.665Z,30.22
2023-05-13T07:46:03.276Z,30.29
2023-05-13T07:51:05.241Z,30.38
2023-05-13T07:56:07.879Z,30.46
2023-05-13T08:01:09.578Z,30.33
2023-05-13T08:06:11.520Z,30.14
2023-05-13T08:11:13.717Z,30.11
2023-05-13T08:16:15.380Z,29.85
2023-05-13T08:21:17.238Z,29.50
2023-05-13T08:26:19.232Z,29.49
2023-05-13T08:31:20.962Z,29.54
2023-05-13T08:36:23.314Z,29.57
2023-05-13T08:41:25.059Z,29.55
2023-05-13T08:46:32.889Z,29.66
2023-05-13T08:51:34.686Z,29.16
2023-05-13T08:56:37.225Z,27.94
2023-05-13T09:01:39.516Z,26.23
2023-05-13T09:06:41.352Z,24.86
2023-05-13T09:11:44.728Z,23.84
2023-05-13T09:16:47.717Z,23.62
2023-05-13T09:21:49.656Z,23.50
2023-05-13T09:26:51.802Z,22.81
2023-05-13T09:31:59.483Z,22.18
2023-05-13T09:37:02.476Z,22.02
2023-05-13T09:42:05.432Z,22.09
2023-05-13T09:47:11.273Z,22.29
2023-05-13T09:52:16.898Z,22.78
2023-05-13T09:57:18.570Z,23.30
2023-05-13T10:02:20.448Z,23.22
2023-05-13T10:07:25.883Z,22.83
2023-05-13T10:12:30.445Z,22.67
2023-05-13T10:17:32.736Z,22.20
2023-05-13T10:22:37.299Z,21.94
2023-05-13T10:27:39.905Z,21.55
2023-05-13T10:32:41.950Z,21.44
2023-05-13T10:37:52.582Z,21.42
2023-05-13T10:43:15.876Z,21.28
2023-05-13T10:48:18.974Z,21.07
2023-05-13T10:53:24.110Z,21.11
2023-05-13T10:58:33.850Z,21.43
2023-05-13T11:03:40.222Z,21.91
2023-05-13T11:08:44.039Z,21.87
2023-05-13T11:13:45.668Z,21.43
2023-05-13T11:18:47.569Z,21.03
2023-05-13T11:24:04.188Z,20.60
2023-05-13T11:29:06.538Z,20.60
2023-05-13T11:34:16.642Z,20.88
2023-05-13T11:39:21.461Z,21.04
2023-05-13T11:44:25.866Z,21.03
2023-05-13T11:49:37.035Z,20.97
2023-05-13T11:54:48.475Z,21.07
2023-05-13T12:00:02.337Z,21.30
2023-05-13T12:05:07.195Z,21.43
2023-05-13T12:10:09.379Z,21.51
2023-05-13T12:15:22.237Z,21.50
2023-05-13T12:20:25.217Z,21.26
2023-05-13T12:25:44.110Z,20.95
2023-05-13T12:30:57.085Z,20.61
2023-05-13T12:36:21.760Z,20.46
2023-05-13T12:41:25.898Z,20.45
2023-05-13T12:46:28.080Z,20.46
2023-05-13T12:51:30.675Z,20.70
2023-05-13T12:56:32.480Z,21.06
2023-05-13T13:01:34.970Z,21.21
2023-05-13T13:06:36.869Z,21.17
2023-05-13T13:11:39.293Z,21.22
2023-05-13T13:16:43.881Z,21.39
2023-05-13T13:21:45.534Z,21.41
2023-05-13T13:26:47.277Z,21.33
2023-05-13T13:31:49.164Z,21.37
2023-05-13T13:36:50.989Z,21.34
2023-05-13T13:41:52.736Z,21.20
2023-05-13T13:46:54.454Z,20.97
2023-05-13T13:51:56.340Z,20.68
2023-05-13T13:56:58.452Z,20.46
2023-05-13T14:02:00.264Z,20.27
2023-05-13T14:07:02.046Z,20.16
2023-05-13T14:12:04.167Z,20.14
2023-05-13T14:17:05.891Z,20.07
2023-05-13T14:22:07.524Z,19.99
2023-05-13T14:27:09.329Z,19.85
2023-05-13T14:32:11.031Z,19.84
2023-05-13T14:37:12.787Z,19.87
2023-05-13T14:42:14.843Z,19.89
2023-05-13T14:47:16.547Z,19.93
2023-05-13T14:52:18.111Z,19.92
2023-05-13T14:57:20.144Z,19.79
2023-05-13T15:02:22.098Z,19.56
2023-05-13T15:07:23.929Z,19.35
2023-05-13T15:12:26.324Z,19.18
2023-05-13T15:17:29.757Z,19.10
2023-05-13T15:22:33.350Z,18.98
2023-05-13T15:27:35.991Z,18.85
2023-05-13T15:32:37.666Z,18.69
2023-05-13T15:37:42.654Z,18.61
2023-05-13T15:42:44.698Z,18.56
2023-05-13T15:47:46.514Z,18.48
2023-05-13T15:52:48.300Z,18.46
2023-05-13T15:57:50.794Z,18.45
2023-05-13T16:02:52.503Z,18.44
2023-05-13T16:07:54.482Z,18.40
2023-05-13T16:12:56.025Z,18.35
2023-05-13T16:17:57.790Z,18.26
2023-05-13T16:22:59.553Z,18.14
2023-05-13T16:28:01.437Z,18.01
2023-05-13T16:33:03.629Z,17.87
2023-05-13T16:38:05.388Z,17.72
2023-05-13T16:43:07.444Z,17.58
2023-05-13T16:48:09.118Z,17.47
2023-05-13T16:53:11.012Z,17.39
2023-05-13T16:58:12.748Z,17.31
2023-05-13T17:03:14.673Z,17.26
2023-05-13T17:08:18.942Z,17.20
2023-05-13T17:13:21.309Z,17.16
2023-05-13T17:18:22.931Z,17.10
2023-05-13T17:23:24.549Z,17.04
2023-05-13T17:28:26.256Z,16.97
2023-05-13T17:33:28.140Z,16.89
2023-05-13T17:38:29.914Z,16.79
2023-05-13T17:43:31.692Z,16.67
2023-05-13T17:48:33.449Z,16.56
2023-05-13T17:53:35.379Z,16.41
2023-05-13T17:58:37.267Z,16.22
2023-05-13T18:03:38.909Z,16.04
2023-05-13T18:08:40.839Z,15.85
2023-05-13T18:13:42.409Z,15.65
2023-05-13T18:18:44.434Z,15.43
2023-05-13T18:23:46.627Z,15.23
2023-05-13T18:28:48.415Z,15.04
2023-05-13T18:33:50.160Z,14.85
2023-05-13T18:38:52.026Z,14.67
2023-05-13T18:43:53.851Z,14.50
2023-05-13T18:48:55.708Z,14.32
2023-05-13T18:53:57.404Z,14.16
2023-05-13T18:58:59.034Z,14.02
2023-05-13T19:04:01.097Z,13.89
2023-05-13T19:09:02.940Z,13.75
2023-05-13T19:14:04.621Z,13.62
2023-05-13T19:19:06.288Z,13.49
2023-05-13T19:24:08.068Z,13.35
2023-05-13T19:29:10.879Z,13.23
2023-05-13T19:34:14.482Z,13.10
2023-05-13T19:39:16.280Z,12.98
2023-05-13T19:44:19.171Z,12.86
2023-05-13T19:49:20.822Z,12.74
2023-05-13T19:54:22.454Z,12.63
2023-05-13T19:59:24.262Z,12.53
2023-05-13T20:04:25.967Z,12.45
2023-05-13T20:09:27.637Z,12.37
2023-05-13T20:14:51.923Z,12.28
2023-05-13T20:19:54.731Z,12.08
2023-05-13T20:24:56.410Z,11.83
2023-05-13T20:30:00.061Z,11.59
2023-05-13T20:35:02.054Z,11.38
2023-05-13T20:40:04.632Z,11.21
2023-05-13T20:45:08.607Z,11.07
2023-05-13T20:50:11.106Z,10.95
2023-05-13T20:55:15.388Z,10.83
2023-05-13T21:00:17.524Z,10.68
2023-05-13T21:05:19.323Z,10.56
2023-05-13T21:10:22.341Z,10.47
2023-05-13T21:15:32.519Z,10.39
2023-05-13T21:20:34.229Z,10.32
2023-05-13T21:25:36.326Z,10.25
2023-05-13T21:30:38.024Z,10.17
2023-05-13T21:35:39.775Z,10.10
2023-05-13T21:40:43.412Z,10.02
2023-05-13T21:45:47.935Z,9.97
2023-05-13T21:50:50.937Z,9.94
2023-05-13T21:55:55.598Z,9.85
2023-05-13T22:01:00.199Z,9.72
2023-05-13T22:06:02.942Z,9.62
2023-05-13T22:11:04.570Z,9.53
2023-05-13T22:16:06.339Z,9.41
2023-05-13T22:21:08.086Z,9.29
2023-05-13T22:26:10.119Z,9.25
2023-05-13T22:31:11.827Z,9.25
2023-05-13T22:36:13.964Z,9.23
2023-05-13T22:41:15.744Z,9.29
2023-05-13T22:46:17.544Z,9.29
2023-05-13T22:51:19.287Z,9.21
2023-05-13T22:56:21.972Z,9.11
2023-05-13T23:01:23.771Z,9.01
2023-05-13T23:06:28.693Z,8.91
2023-05-13T23:11:32.528Z,8.81
2023-05-13T23:16:36.185Z,8.76
2023-05-13T23:21:37.991Z,8.73
2023-05-13T23:26:39.766Z,8.72
2023-05-13T23:31:41.521Z,8.74
2023-05-13T23:36:43.288Z,8.71
2023-05-13T23:41:45.659Z,8.64
2023-05-13T23:46:50.500Z,8.55
2023-05-13T23:52:02.726Z,8.46
2023-05-13T23:57:04.508Z,8.32
